Chadwicks, New York
Current Conditions -  °F | °C
As of 5:53 PM on Saturday 25 Oct 2014 (Local Time) from KRME Reporting Station
Light Rain Light Rain  
Wind Chill: 55°   Ceiling: 6000
Heat Index: 55°   Visibility: 9mi
Dew Point: 51°   Wind: 3mph
Humidity: 86%   Direction: 360°N
Pressure: 29.55"   Gusts: NA
Location:  43.03°N, 75.27°W
Report Text: KRME 252153Z 36003KT 9SM -RA OVC060 13/11 A2955 RMK AO2 RAB29 SLP006 P0002 T01280106
Loading
Personal Weather Stations






























Interactive Weather Map
Tropical Storm Tracking
New forecast layout! Learn more

10-Day Weather Forecast

Advertisements
Track Severe Weather on mobile